createdAt,value
2023-04-27T00:03:42.524Z,90.4
2023-04-27T00:08:42.337Z,89.1
2023-04-27T00:13:42.331Z,89.6
2023-04-27T00:18:42.332Z,90.3
2023-04-27T00:23:42.337Z,90.7
2023-04-27T00:28:42.328Z,90.8
2023-04-27T00:33:42.304Z,90.4
2023-04-27T00:38:42.288Z,89.9
2023-04-27T00:43:42.312Z,88.4
2023-04-27T00:48:42.288Z,89.6
2023-04-27T00:53:42.316Z,90.4
2023-04-27T00:58:42.288Z,90.6
2023-04-27T01:03:42.376Z,91
2023-04-27T01:08:42.276Z,91
2023-04-27T01:13:42.278Z,90.4
2023-04-27T01:18:42.300Z,91.2
2023-04-27T01:23:42.279Z,90.7
2023-04-27T01:28:42.267Z,91.3
2023-04-27T01:33:42.292Z,91.2
2023-04-27T01:38:42.276Z,90.4
2023-04-27T01:43:42.268Z,89.5
2023-04-27T01:48:42.292Z,89.9
2023-04-27T01:53:42.260Z,89.5
2023-04-27T01:58:42.260Z,89.5
2023-04-27T02:03:42.426Z,89.4
2023-04-27T02:08:42.249Z,87.5
2023-04-27T02:13:42.261Z,88.6
2023-04-27T02:18:42.247Z,88.1
2023-04-27T02:23:42.228Z,88.8
2023-04-27T02:28:42.253Z,90.2
2023-04-27T02:33:42.258Z,89.8
2023-04-27T02:38:42.209Z,88.4
2023-04-27T02:43:42.226Z,89.1
2023-04-27T02:48:42.236Z,89.7
2023-04-27T02:53:42.206Z,88
2023-04-27T02:58:42.200Z,88.9
2023-04-27T03:03:42.315Z,89.2
2023-04-27T03:08:42.195Z,89.3
2023-04-27T03:13:42.293Z,89
2023-04-27T03:18:42.182Z,89.2
2023-04-27T03:23:42.204Z,90.2
2023-04-27T03:28:42.182Z,89.6
2023-04-27T03:33:42.178Z,89.7
2023-04-27T03:38:42.174Z,89.8
2023-04-27T03:43:42.201Z,89.2
2023-04-27T03:48:42.191Z,89.4
2023-04-27T03:53:42.174Z,88.8
2023-04-27T03:58:42.173Z,89.1
2023-04-27T04:03:42.242Z,90.2
2023-04-27T04:08:42.176Z,91.2
2023-04-27T04:13:42.149Z,90.4
2023-04-27T04:18:42.139Z,91.1
2023-04-27T04:23:42.162Z,90.8
2023-04-27T04:28:42.188Z,90.8
2023-04-27T04:33:42.144Z,91.1
2023-04-27T04:38:42.141Z,91.3
2023-04-27T04:43:42.124Z,90.2
2023-04-27T04:48:42.123Z,89.3
2023-04-27T04:53:42.122Z,88.7
2023-04-27T04:58:42.118Z,88.1
2023-04-27T05:03:42.189Z,85.8
2023-04-27T05:08:42.112Z,84.1
2023-04-27T05:13:42.124Z,83.9
2023-04-27T05:18:42.129Z,82.7
2023-04-27T05:23:42.120Z,81.4
2023-04-27T05:28:42.132Z,78.8
2023-04-27T05:33:42.139Z,77.3
2023-04-27T05:38:42.107Z,74.9
2023-04-27T05:43:42.082Z,76.1
2023-04-27T05:48:42.084Z,75.1
2023-04-27T05:58:42.097Z,73.5
2023-04-27T06:03:42.162Z,72.7
2023-04-27T06:08:42.071Z,71.8
2023-04-27T06:13:42.094Z,72
2023-04-27T06:18:42.058Z,71.5
2023-04-27T06:23:42.069Z,70.7
2023-04-27T06:28:42.044Z,71.2
2023-04-27T06:33:42.100Z,71.6
2023-04-27T06:38:42.050Z,71
2023-04-27T06:43:42.026Z,70.1
2023-04-27T06:48:42.020Z,70.2
2023-04-27T06:53:42.030Z,70.3
2023-04-27T06:58:42.019Z,69.7
2023-04-27T07:03:42.144Z,69.6
2023-04-27T07:08:42.000Z,69.1
2023-04-27T07:13:41.997Z,69
2023-04-27T07:18:43.381Z,67.8
2023-04-27T07:23:42.023Z,67.4
2023-04-27T07:28:41.984Z,66.2
2023-04-27T07:33:41.977Z,64.9
2023-04-27T07:38:41.975Z,64.2
2023-04-27T07:43:41.964Z,64.7
2023-04-27T07:48:41.952Z,62.6
2023-04-27T07:53:41.964Z,62.1
2023-04-27T07:58:41.965Z,60.7
2023-04-27T08:03:42.251Z,59.8
2023-04-27T08:08:41.927Z,59.4
2023-04-27T08:13:41.933Z,57.3
2023-04-27T08:18:41.924Z,57.2
2023-04-27T08:23:41.932Z,55.8
2023-04-27T08:28:41.904Z,55.8
2023-04-27T08:33:41.905Z,54.2
2023-04-27T08:38:41.901Z,51.8
2023-04-27T08:43:41.901Z,51.5
2023-04-27T08:48:41.904Z,51.5
2023-04-27T08:53:41.885Z,51.4
2023-04-27T08:58:41.884Z,51
2023-04-27T09:03:41.956Z,51.3
2023-04-27T09:08:41.874Z,51.3
2023-04-27T09:13:41.916Z,50.7
2023-04-27T09:18:41.851Z,50.8
2023-04-27T09:23:41.850Z,49.7
2023-04-27T09:28:41.832Z,49.5
2023-04-27T09:33:41.823Z,50.4
2023-04-27T09:38:41.826Z,49.5
2023-04-27T09:43:41.818Z,49.3
2023-04-27T09:48:41.828Z,49
2023-04-27T10:03:41.893Z,53.2
2023-04-27T10:13:41.783Z,52.4
2023-04-27T10:18:41.765Z,51.9
2023-04-27T12:18:41.627Z,48
2023-04-27T12:43:41.589Z,48.1
2023-04-27T12:48:41.639Z,47.9
2023-04-27T13:18:41.529Z,47.7
2023-04-27T13:28:41.515Z,46.5
2023-04-27T13:33:41.564Z,47.1
2023-04-27T13:38:41.544Z,47.4
2023-04-27T13:43:41.527Z,47.5
2023-04-27T13:48:41.507Z,47.4
2023-04-27T13:53:41.526Z,47.3
2023-04-27T13:58:41.488Z,47.4
2023-04-27T14:03:43.443Z,48.3
2023-04-27T14:08:41.490Z,47.8
2023-04-27T14:13:41.521Z,48.5
2023-04-27T14:18:41.485Z,48.4
2023-04-27T14:23:41.462Z,49
2023-04-27T14:28:41.480Z,48
2023-04-27T14:33:41.469Z,48.7
2023-04-27T14:38:41.449Z,48.5
2023-04-27T14:43:41.439Z,49.2
2023-04-27T14:48:41.440Z,49.3
2023-04-27T14:53:41.444Z,49.5
2023-04-27T14:58:41.429Z,49.7
2023-04-27T15:03:41.558Z,50.4
2023-04-27T15:08:41.422Z,51.3
2023-04-27T15:13:41.395Z,52.1
2023-04-27T15:18:41.398Z,52.1
2023-04-27T15:23:41.413Z,51.5
2023-04-27T15:28:41.393Z,51.7
2023-04-27T15:33:41.388Z,51.3
2023-04-27T15:38:41.372Z,52.4
2023-04-27T15:43:41.361Z,51.5
2023-04-27T15:48:41.362Z,51.7
2023-04-27T15:53:41.356Z,53.1
2023-04-27T15:58:41.338Z,53.9
2023-04-27T16:03:41.429Z,54.1
2023-04-27T16:08:41.336Z,53.7
2023-04-27T16:13:41.332Z,53.7
2023-04-27T16:18:41.338Z,54.3
2023-04-27T16:23:41.325Z,54.6
2023-04-27T16:28:41.320Z,56.9
2023-04-27T16:33:41.299Z,56.7
2023-04-27T16:38:41.312Z,56.9
2023-04-27T16:43:41.285Z,56.2
2023-04-27T16:48:41.283Z,57.2
2023-04-27T16:53:41.259Z,58.2
2023-04-27T16:58:41.302Z,58.7
2023-04-27T17:03:41.343Z,58.8
2023-04-27T17:08:41.281Z,59.4
2023-04-27T17:13:41.255Z,60.1
2023-04-27T17:18:41.274Z,60.1
2023-04-27T17:23:41.243Z,61.5
2023-04-27T17:28:41.220Z,62.4
2023-04-27T17:33:41.221Z,62.4
2023-04-27T17:38:41.240Z,63.2
2023-04-27T17:43:41.217Z,64
2023-04-27T17:48:41.221Z,64.8
2023-04-27T17:53:41.223Z,65.9
2023-04-27T17:58:41.201Z,67
2023-04-27T18:03:41.271Z,70.2
2023-04-27T18:08:41.196Z,72.6
2023-04-27T18:13:41.195Z,73.9
2023-04-27T18:18:41.205Z,75
2023-04-27T18:23:41.183Z,77.2
2023-04-27T18:28:41.168Z,77.9
2023-04-27T18:33:41.162Z,78.4
2023-04-27T18:38:41.164Z,78.8
2023-04-27T18:43:41.147Z,80.2
2023-04-27T18:48:41.158Z,80.5
2023-04-27T18:58:41.146Z,81.1
2023-04-27T19:03:41.318Z,82
2023-04-27T19:08:41.146Z,83.7
2023-04-27T19:13:41.156Z,84.2
2023-04-27T19:18:41.132Z,85
2023-04-27T19:23:41.112Z,85.6
2023-04-27T19:28:41.136Z,86.4
2023-04-27T19:33:46.623Z,87
2023-04-27T19:38:41.089Z,87.6
2023-04-27T19:43:41.094Z,88.2
2023-04-27T19:48:42.291Z,88.5
2023-04-27T19:53:41.079Z,89.1
2023-04-27T19:58:41.111Z,89.3
2023-04-27T20:03:41.163Z,89.6
2023-04-27T20:08:41.078Z,89.5
2023-04-27T20:13:41.094Z,89.8
2023-04-27T20:18:41.080Z,89.9
2023-04-27T20:23:41.067Z,89.8
2023-04-27T20:28:41.058Z,90.3
2023-04-27T20:33:41.040Z,90.9
2023-04-27T20:38:41.045Z,91.4
2023-04-27T20:43:41.043Z,91.9
2023-04-27T20:48:41.036Z,91.9
2023-04-27T20:53:41.028Z,92.2
2023-04-27T20:58:41.038Z,92.9
2023-04-27T21:03:41.110Z,93.4
2023-04-27T21:08:41.023Z,93.4
2023-04-27T21:13:41.049Z,93.6
2023-04-27T21:18:41.029Z,94.1
2023-04-27T21:23:41.034Z,94.4
2023-04-27T21:28:41.014Z,94.5
2023-04-27T21:33:40.999Z,94.7
2023-04-27T21:38:40.998Z,95
2023-04-27T21:48:41.212Z,95.8
2023-04-27T21:53:40.984Z,95.9
2023-04-27T21:58:40.966Z,96
2023-04-27T22:03:41.098Z,96.2
2023-04-27T22:08:41.023Z,95.9
2023-04-27T22:13:40.966Z,95.8
2023-04-27T22:18:40.966Z,95.2
2023-04-27T22:23:40.952Z,94.9
2023-04-27T22:28:40.960Z,94.4
2023-04-27T22:33:40.976Z,94.4
2023-04-27T22:38:40.961Z,94.7
2023-04-27T22:43:40.942Z,94.7
2023-04-27T22:48:40.957Z,94.7
2023-04-27T22:53:40.939Z,94.3
2023-04-27T22:58:40.925Z,94.9
2023-04-27T23:03:40.962Z,95
2023-04-27T23:08:40.925Z,95
2023-04-27T23:13:40.978Z,95.1
2023-04-27T23:18:40.931Z,95.3
2023-04-27T23:23:40.912Z,94.7
2023-04-27T23:28:40.927Z,95.6
2023-04-27T23:33:40.924Z,96.1
2023-04-27T23:38:40.899Z,96.2
2023-04-27T23:43:40.904Z,96.5
2023-04-27T23:48:40.901Z,96.8
2023-04-27T23:53:40.888Z,96.5
2023-04-27T23:58:40.880Z,96.5
